sensor_id;sensor_type;location;lat;lon;timestamp;P1;durP1;ratioP1;P2;durP2;ratioP2
13303;SDS011;6720;51.958;4.540;2023-08-30T00:00:18;12.27;;;8.83;;
13303;SDS011;6720;51.958;4.540;2023-08-30T00:02:46;7.23;;;5.90;;
13303;SDS011;6720;51.958;4.540;2023-08-30T00:05:12;7.27;;;6.57;;
13303;SDS011;6720;51.958;4.540;2023-08-30T00:07:38;10.10;;;7.47;;
13303;SDS011;6720;51.958;4.540;2023-08-30T00:10:05;6.83;;;6.20;;
13303;SDS011;6720;51.958;4.540;2023-08-30T00:12:31;8.87;;;6.80;;
13303;SDS011;6720;51.958;4.540;2023-08-30T00:14:57;8.13;;;6.60;;
13303;SDS011;6720;51.958;4.540;2023-08-30T00:17:22;7.27;;;6.13;;
13303;SDS011;6720;51.958;4.540;2023-08-30T00:19:48;10.27;;;7.23;;
13303;SDS011;6720;51.958;4.540;2023-08-30T00:22:14;9.30;;;7.50;;
13303;SDS011;6720;51.958;4.540;2023-08-30T00:24:39;8.20;;;7.33;;
13303;SDS011;6720;51.958;4.540;2023-08-30T00:27:05;7.53;;;6.77;;
13303;SDS011;6720;51.958;4.540;2023-08-30T00:29:31;9.43;;;7.60;;
13303;SDS011;6720;51.958;4.540;2023-08-30T00:31:56;7.70;;;6.90;;
13303;SDS011;6720;51.958;4.540;2023-08-30T00:34:22;10.83;;;8.83;;
13303;SDS011;6720;51.958;4.540;2023-08-30T00:36:47;8.60;;;7.70;;
13303;SDS011;6720;51.958;4.540;2023-08-30T00:39:13;7.87;;;6.97;;
13303;SDS011;6720;51.958;4.540;2023-08-30T00:41:38;7.20;;;6.50;;
13303;SDS011;6720;51.958;4.540;2023-08-30T00:44:04;8.40;;;7.50;;
13303;SDS011;6720;51.958;4.540;2023-08-30T00:46:30;9.67;;;8.00;;
13303;SDS011;6720;51.958;4.540;2023-08-30T00:48:56;7.87;;;6.57;;
13303;SDS011;6720;51.958;4.540;2023-08-30T00:51:22;9.00;;;6.97;;
13303;SDS011;6720;51.958;4.540;2023-08-30T00:53:48;8.30;;;7.00;;
13303;SDS011;6720;51.958;4.540;2023-08-30T00:56:14;11.17;;;8.30;;
13303;SDS011;6720;51.958;4.540;2023-08-30T00:58:40;7.60;;;6.73;;
13303;SDS011;6720;51.958;4.540;2023-08-30T01:01:06;12.50;;;9.00;;
13303;SDS011;6720;51.958;4.540;2023-08-30T01:03:33;10.57;;;9.47;;
13303;SDS011;6720;51.958;4.540;2023-08-30T01:05:59;9.10;;;6.27;;
13303;SDS011;6720;51.958;4.540;2023-08-30T01:08:25;8.77;;;6.60;;
13303;SDS011;6720;51.958;4.540;2023-08-30T01:10:57;8.07;;;6.80;;
13303;SDS011;6720;51.958;4.540;2023-08-30T01:13:28;7.93;;;6.60;;
13303;SDS011;6720;51.958;4.540;2023-08-30T01:15:57;9.10;;;6.77;;
13303;SDS011;6720;51.958;4.540;2023-08-30T01:18:26;9.57;;;7.57;;
13303;SDS011;6720;51.958;4.540;2023-08-30T01:20:52;9.80;;;7.70;;
13303;SDS011;6720;51.958;4.540;2023-08-30T01:29:23;9.93;;;7.50;;
13303;SDS011;6720;51.958;4.540;2023-08-30T01:31:50;9.37;;;7.10;;
13303;SDS011;6720;51.958;4.540;2023-08-30T01:34:16;9.30;;;8.03;;
13303;SDS011;6720;51.958;4.540;2023-08-30T01:36:42;10.67;;;7.70;;
13303;SDS011;6720;51.958;4.540;2023-08-30T01:39:13;9.70;;;7.93;;
13303;SDS011;6720;51.958;4.540;2023-08-30T01:41:51;10.43;;;7.90;;
13303;SDS011;6720;51.958;4.540;2023-08-30T01:45:02;10.50;;;9.40;;
13303;SDS011;6720;51.958;4.540;2023-08-30T02:02:49;9.90;;;8.83;;
13303;SDS011;6720;51.958;4.540;2023-08-30T02:05:15;10.90;;;8.43;;
13303;SDS011;6720;51.958;4.540;2023-08-30T02:07:50;10.67;;;8.57;;
13303;SDS011;6720;51.958;4.540;2023-08-30T02:10:59;9.77;;;8.10;;
13303;SDS011;6720;51.958;4.540;2023-08-30T02:13:54;11.63;;;9.63;;
13303;SDS011;6720;51.958;4.540;2023-08-30T02:16:23;11.10;;;9.13;;
13303;SDS011;6720;51.958;4.540;2023-08-30T02:18:51;10.30;;;8.87;;
13303;SDS011;6720;51.958;4.540;2023-08-30T02:21:17;10.57;;;8.73;;
13303;SDS011;6720;51.958;4.540;2023-08-30T02:23:43;10.40;;;8.57;;
13303;SDS011;6720;51.958;4.540;2023-08-30T02:26:20;10.70;;;9.03;;
13303;SDS011;6720;51.958;4.540;2023-08-30T02:29:24;11.20;;;9.00;;
13303;SDS011;6720;51.958;4.540;2023-08-30T02:32:13;11.17;;;9.37;;
13303;SDS011;6720;51.958;4.540;2023-08-30T02:34:40;12.73;;;9.27;;
13303;SDS011;6720;51.958;4.540;2023-08-30T02:37:05;10.23;;;9.03;;
13303;SDS011;6720;51.958;4.540;2023-08-30T02:39:30;10.70;;;9.60;;
13303;SDS011;6720;51.958;4.540;2023-08-30T02:41:56;10.57;;;9.50;;
13303;SDS011;6720;51.958;4.540;2023-08-30T02:44:21;12.60;;;9.93;;
13303;SDS011;6720;51.958;4.540;2023-08-30T02:46:47;10.73;;;9.60;;
13303;SDS011;6720;51.958;4.540;2023-08-30T02:49:12;13.93;;;10.10;;
13303;SDS011;6720;51.958;4.540;2023-08-30T02:51:37;11.77;;;10.30;;
13303;SDS011;6720;51.958;4.540;2023-08-30T02:54:03;13.03;;;10.30;;
13303;SDS011;6720;51.958;4.540;2023-08-30T02:56:28;12.10;;;10.80;;
13303;SDS011;6720;51.958;4.540;2023-08-30T02:58:54;13.13;;;10.23;;
13303;SDS011;6720;51.958;4.540;2023-08-30T03:01:19;11.27;;;10.07;;
13303;SDS011;6720;51.958;4.540;2023-08-30T03:03:45;11.30;;;10.10;;
13303;SDS011;6720;51.958;4.540;2023-08-30T03:06:11;12.87;;;10.30;;
13303;SDS011;6720;51.958;4.540;2023-08-30T03:08:39;14.23;;;11.73;;
13303;SDS011;6720;51.958;4.540;2023-08-30T03:11:11;12.90;;;10.60;;
13303;SDS011;6720;51.958;4.540;2023-08-30T03:13:38;14.87;;;10.63;;
13303;SDS011;6720;51.958;4.540;2023-08-30T03:16:10;14.17;;;12.13;;
13303;SDS011;6720;51.958;4.540;2023-08-30T03:18:40;14.90;;;13.17;;
13303;SDS011;6720;51.958;4.540;2023-08-30T03:21:06;16.17;;;12.00;;
13303;SDS011;6720;51.958;4.540;2023-08-30T03:23:32;13.97;;;12.13;;
13303;SDS011;6720;51.958;4.540;2023-08-30T03:25:58;14.40;;;12.27;;
13303;SDS011;6720;51.958;4.540;2023-08-30T03:28:24;14.47;;;11.87;;
13303;SDS011;6720;51.958;4.540;2023-08-30T03:30:49;14.30;;;11.50;;
13303;SDS011;6720;51.958;4.540;2023-08-30T03:33:15;14.70;;;13.00;;
13303;SDS011;6720;51.958;4.540;2023-08-30T03:35:40;13.67;;;11.43;;
13303;SDS011;6720;51.958;4.540;2023-08-30T03:38:06;13.07;;;11.67;;
13303;SDS011;6720;51.958;4.540;2023-08-30T03:40:32;14.63;;;12.13;;
13303;SDS011;6720;51.958;4.540;2023-08-30T03:42:57;14.20;;;12.33;;
13303;SDS011;6720;51.958;4.540;2023-08-30T03:45:23;12.67;;;11.37;;
13303;SDS011;6720;51.958;4.540;2023-08-30T03:47:48;13.77;;;11.50;;
13303;SDS011;6720;51.958;4.540;2023-08-30T03:50:14;13.67;;;12.13;;
13303;SDS011;6720;51.958;4.540;2023-08-30T03:52:40;15.23;;;12.90;;
13303;SDS011;6720;51.958;4.540;2023-08-30T03:55:05;13.40;;;11.10;;
13303;SDS011;6720;51.958;4.540;2023-08-30T03:57:31;14.97;;;12.17;;
13303;SDS011;6720;51.958;4.540;2023-08-30T03:59:56;12.10;;;10.90;;
13303;SDS011;6720;51.958;4.540;2023-08-30T04:02:21;12.60;;;11.30;;
13303;SDS011;6720;51.958;4.540;2023-08-30T04:04:48;14.97;;;11.73;;
13303;SDS011;6720;51.958;4.540;2023-08-30T04:07:14;14.10;;;11.30;;
13303;SDS011;6720;51.958;4.540;2023-08-30T04:09:39;13.00;;;11.00;;
13303;SDS011;6720;51.958;4.540;2023-08-30T04:12:05;14.57;;;11.57;;
13303;SDS011;6720;51.958;4.540;2023-08-30T04:14:31;14.03;;;11.97;;
13303;SDS011;6720;51.958;4.540;2023-08-30T04:16:56;15.40;;;12.00;;
13303;SDS011;6720;51.958;4.540;2023-08-30T04:19:22;14.53;;;12.10;;
13303;SDS011;6720;51.958;4.540;2023-08-30T04:21:47;14.83;;;12.17;;
13303;SDS011;6720;51.958;4.540;2023-08-30T04:24:12;14.63;;;12.23;;
13303;SDS011;6720;51.958;4.540;2023-08-30T04:26:39;15.00;;;12.30;;
13303;SDS011;6720;51.958;4.540;2023-08-30T04:29:05;13.77;;;11.53;;
13303;SDS011;6720;51.958;4.540;2023-08-30T04:31:30;16.20;;;12.63;;
13303;SDS011;6720;51.958;4.540;2023-08-30T04:33:56;14.83;;;12.07;;
13303;SDS011;6720;51.958;4.540;2023-08-30T04:36:21;14.00;;;11.80;;
13303;SDS011;6720;51.958;4.540;2023-08-30T04:38:46;14.50;;;12.17;;
13303;SDS011;6720;51.958;4.540;2023-08-30T04:41:12;14.00;;;12.50;;
13303;SDS011;6720;51.958;4.540;2023-08-30T04:43:38;18.70;;;14.27;;
13303;SDS011;6720;51.958;4.540;2023-08-30T04:46:03;15.37;;;13.03;;
13303;SDS011;6720;51.958;4.540;2023-08-30T04:48:29;15.47;;;13.33;;
13303;SDS011;6720;51.958;4.540;2023-08-30T04:51:01;17.67;;;13.50;;
13303;SDS011;6720;51.958;4.540;2023-08-30T04:53:28;18.53;;;13.10;;
13303;SDS011;6720;51.958;4.540;2023-08-30T04:55:54;16.27;;;13.80;;
13303;SDS011;6720;51.958;4.540;2023-08-30T04:58:19;17.33;;;14.33;;
13303;SDS011;6720;51.958;4.540;2023-08-30T05:00:45;15.53;;;13.23;;
13303;SDS011;6720;51.958;4.540;2023-08-30T05:03:10;18.43;;;14.27;;
13303;SDS011;6720;51.958;4.540;2023-08-30T05:05:35;17.23;;;13.63;;
13303;SDS011;6720;51.958;4.540;2023-08-30T05:08:01;16.43;;;13.03;;
13303;SDS011;6720;51.958;4.540;2023-08-30T05:10:27;17.37;;;14.47;;
13303;SDS011;6720;51.958;4.540;2023-08-30T05:12:52;17.80;;;14.87;;
13303;SDS011;6720;51.958;4.540;2023-08-30T05:15:18;17.60;;;15.13;;
13303;SDS011;6720;51.958;4.540;2023-08-30T05:17:43;18.67;;;14.53;;
13303;SDS011;6720;51.958;4.540;2023-08-30T05:20:09;18.70;;;16.20;;
13303;SDS011;6720;51.958;4.540;2023-08-30T05:22:35;21.17;;;15.63;;
13303;SDS011;6720;51.958;4.540;2023-08-30T05:25:00;18.73;;;15.70;;
13303;SDS011;6720;51.958;4.540;2023-08-30T05:27:26;21.33;;;15.93;;
13303;SDS011;6720;51.958;4.540;2023-08-30T05:29:52;22.53;;;16.93;;
13303;SDS011;6720;51.958;4.540;2023-08-30T05:32:18;22.00;;;17.50;;
13303;SDS011;6720;51.958;4.540;2023-08-30T05:34:43;23.87;;;17.43;;
13303;SDS011;6720;51.958;4.540;2023-08-30T05:37:09;21.67;;;17.20;;
13303;SDS011;6720;51.958;4.540;2023-08-30T05:39:34;23.53;;;17.27;;
13303;SDS011;6720;51.958;4.540;2023-08-30T05:42:00;22.27;;;16.93;;
13303;SDS011;6720;51.958;4.540;2023-08-30T05:44:25;26.17;;;18.27;;
13303;SDS011;6720;51.958;4.540;2023-08-30T05:46:51;24.03;;;18.00;;
13303;SDS011;6720;51.958;4.540;2023-08-30T05:49:16;24.60;;;18.83;;
13303;SDS011;6720;51.958;4.540;2023-08-30T05:51:42;27.37;;;20.23;;
13303;SDS011;6720;51.958;4.540;2023-08-30T05:54:07;24.87;;;18.40;;
13303;SDS011;6720;51.958;4.540;2023-08-30T05:56:33;24.20;;;18.63;;
13303;SDS011;6720;51.958;4.540;2023-08-30T05:58:58;26.70;;;19.10;;
13303;SDS011;6720;51.958;4.540;2023-08-30T06:01:23;22.43;;;17.60;;
13303;SDS011;6720;51.958;4.540;2023-08-30T06:03:50;22.07;;;17.73;;
13303;SDS011;6720;51.958;4.540;2023-08-30T06:06:15;19.63;;;17.53;;
13303;SDS011;6720;51.958;4.540;2023-08-30T06:08:41;23.50;;;18.60;;
13303;SDS011;6720;51.958;4.540;2023-08-30T06:11:07;28.73;;;22.70;;
13303;SDS011;6720;51.958;4.540;2023-08-30T06:13:32;23.23;;;17.90;;
13303;SDS011;6720;51.958;4.540;2023-08-30T06:15:58;22.80;;;17.73;;
13303;SDS011;6720;51.958;4.540;2023-08-30T06:18:23;20.17;;;17.17;;
13303;SDS011;6720;51.958;4.540;2023-08-30T06:20:48;21.03;;;16.73;;
13303;SDS011;6720;51.958;4.540;2023-08-30T06:23:15;20.70;;;16.90;;
13303;SDS011;6720;51.958;4.540;2023-08-30T06:25:43;21.43;;;17.30;;
13303;SDS011;6720;51.958;4.540;2023-08-30T06:28:09;23.60;;;17.07;;
13303;SDS011;6720;51.958;4.540;2023-08-30T06:30:34;19.77;;;16.27;;
13303;SDS011;6720;51.958;4.540;2023-08-30T06:33:00;28.03;;;20.27;;
13303;SDS011;6720;51.958;4.540;2023-08-30T06:35:25;21.97;;;16.43;;
13303;SDS011;6720;51.958;4.540;2023-08-30T06:37:51;21.27;;;16.97;;
13303;SDS011;6720;51.958;4.540;2023-08-30T06:40:17;21.87;;;16.47;;
13303;SDS011;6720;51.958;4.540;2023-08-30T06:42:43;22.23;;;17.27;;
13303;SDS011;6720;51.958;4.540;2023-08-30T06:45:08;18.93;;;16.70;;
13303;SDS011;6720;51.958;4.540;2023-08-30T06:47:34;22.27;;;16.93;;
13303;SDS011;6720;51.958;4.540;2023-08-30T06:50:00;24.43;;;18.50;;
13303;SDS011;6720;51.958;4.540;2023-08-30T06:52:26;29.67;;;20.97;;
13303;SDS011;6720;51.958;4.540;2023-08-30T06:54:51;20.93;;;17.10;;
13303;SDS011;6720;51.958;4.540;2023-08-30T06:57:17;25.03;;;17.63;;
13303;SDS011;6720;51.958;4.540;2023-08-30T06:59:42;24.83;;;18.50;;
13303;SDS011;6720;51.958;4.540;2023-08-30T07:02:08;24.17;;;18.83;;
13303;SDS011;6720;51.958;4.540;2023-08-30T07:04:33;24.47;;;19.20;;
13303;SDS011;6720;51.958;4.540;2023-08-30T07:06:59;21.73;;;17.60;;
13303;SDS011;6720;51.958;4.540;2023-08-30T07:09:24;18.00;;;15.57;;
13303;SDS011;6720;51.958;4.540;2023-08-30T07:11:57;19.70;;;17.60;;
13303;SDS011;6720;51.958;4.540;2023-08-30T07:14:23;20.60;;;16.97;;
13303;SDS011;6720;51.958;4.540;2023-08-30T07:16:48;18.60;;;16.63;;
13303;SDS011;6720;51.958;4.540;2023-08-30T07:19:16;21.37;;;16.73;;
13303;SDS011;6720;51.958;4.540;2023-08-30T07:21:44;18.37;;;15.77;;
13303;SDS011;6720;51.958;4.540;2023-08-30T07:24:09;17.43;;;15.63;;
13303;SDS011;6720;51.958;4.540;2023-08-30T07:26:35;15.97;;;14.33;;
13303;SDS011;6720;51.958;4.540;2023-08-30T07:29:01;19.87;;;17.27;;
13303;SDS011;6720;51.958;4.540;2023-08-30T07:31:27;17.07;;;13.63;;
13303;SDS011;6720;51.958;4.540;2023-08-30T07:33:52;17.43;;;13.93;;
13303;SDS011;6720;51.958;4.540;2023-08-30T07:36:17;14.60;;;13.03;;
13303;SDS011;6720;51.958;4.540;2023-08-30T07:38:43;15.00;;;13.23;;
13303;SDS011;6720;51.958;4.540;2023-08-30T07:41:09;14.27;;;12.77;;
13303;SDS011;6720;51.958;4.540;2023-08-30T07:43:34;13.33;;;11.97;;
13303;SDS011;6720;51.958;4.540;2023-08-30T07:46:00;13.13;;;10.77;;
13303;SDS011;6720;51.958;4.540;2023-08-30T07:48:26;13.43;;;12.03;;
13303;SDS011;6720;51.958;4.540;2023-08-30T07:50:51;13.40;;;12.10;;
13303;SDS011;6720;51.958;4.540;2023-08-30T07:53:17;13.13;;;11.77;;
13303;SDS011;6720;51.958;4.540;2023-08-30T07:55:42;13.23;;;11.27;;
13303;SDS011;6720;51.958;4.540;2023-08-30T07:58:07;12.50;;;11.23;;
13303;SDS011;6720;51.958;4.540;2023-08-30T08:00:35;14.33;;;12.93;;
13303;SDS011;6720;51.958;4.540;2023-08-30T08:03:00;14.07;;;12.70;;
13303;SDS011;6720;51.958;4.540;2023-08-30T08:05:26;12.73;;;11.43;;
13303;SDS011;6720;51.958;4.540;2023-08-30T08:07:52;14.57;;;12.93;;
13303;SDS011;6720;51.958;4.540;2023-08-30T08:10:18;14.27;;;12.80;;
13303;SDS011;6720;51.958;4.540;2023-08-30T08:12:44;14.40;;;12.80;;
13303;SDS011;6720;51.958;4.540;2023-08-30T08:18:15;13.90;;;12.60;;
13303;SDS011;6720;51.958;4.540;2023-08-30T08:20:41;14.40;;;13.00;;
13303;SDS011;6720;51.958;4.540;2023-08-30T08:23:06;16.57;;;14.87;;
13303;SDS011;6720;51.958;4.540;2023-08-30T08:25:32;14.50;;;13.07;;
13303;SDS011;6720;51.958;4.540;2023-08-30T08:27:57;15.90;;;14.37;;
13303;SDS011;6720;51.958;4.540;2023-08-30T08:30:23;16.87;;;15.00;;
13303;SDS011;6720;51.958;4.540;2023-08-30T08:32:48;16.50;;;14.90;;
13303;SDS011;6720;51.958;4.540;2023-08-30T08:35:15;18.27;;;15.00;;
13303;SDS011;6720;51.958;4.540;2023-08-30T08:37:42;18.43;;;16.53;;
13303;SDS011;6720;51.958;4.540;2023-08-30T08:40:13;16.10;;;14.50;;
13303;SDS011;6720;51.958;4.540;2023-08-30T08:42:38;16.03;;;14.43;;
13303;SDS011;6720;51.958;4.540;2023-08-30T08:45:06;16.33;;;14.90;;
13303;SDS011;6720;51.958;4.540;2023-08-30T08:47:34;15.53;;;14.13;;
13303;SDS011;6720;51.958;4.540;2023-08-30T08:50:02;14.77;;;13.27;;
13303;SDS011;6720;51.958;4.540;2023-08-30T08:52:30;14.10;;;12.80;;
13303;SDS011;6720;51.958;4.540;2023-08-30T08:54:56;15.70;;;14.10;;
13303;SDS011;6720;51.958;4.540;2023-08-30T08:57:22;10.23;;;9.23;;
13303;SDS011;6720;51.958;4.540;2023-08-30T08:59:48;9.30;;;8.40;;
13303;SDS011;6720;51.958;4.540;2023-08-30T09:02:15;10.90;;;9.07;;
13303;SDS011;6720;51.958;4.540;2023-08-30T09:04:41;9.73;;;7.20;;
13303;SDS011;6720;51.958;4.540;2023-08-30T09:07:06;7.80;;;6.87;;
13303;SDS011;6720;51.958;4.540;2023-08-30T09:09:34;6.97;;;5.23;;
13303;SDS011;6720;51.958;4.540;2023-08-30T09:12:00;6.93;;;6.20;;
13303;SDS011;6720;51.958;4.540;2023-08-30T09:14:26;8.27;;;5.80;;
13303;SDS011;6720;51.958;4.540;2023-08-30T09:17:01;8.73;;;5.83;;
13303;SDS011;6720;51.958;4.540;2023-08-30T09:19:27;7.07;;;5.50;;
13303;SDS011;6720;51.958;4.540;2023-08-30T09:21:54;8.13;;;5.47;;
13303;SDS011;6720;51.958;4.540;2023-08-30T09:24:22;7.03;;;4.50;;
13303;SDS011;6720;51.958;4.540;2023-08-30T09:26:48;11.10;;;4.77;;
13303;SDS011;6720;51.958;4.540;2023-08-30T09:29:16;5.83;;;5.00;;
13303;SDS011;6720;51.958;4.540;2023-08-30T09:31:43;9.00;;;5.80;;
13303;SDS011;6720;51.958;4.540;2023-08-30T09:34:08;7.03;;;5.10;;
13303;SDS011;6720;51.958;4.540;2023-08-30T09:36:36;7.80;;;4.97;;
13303;SDS011;6720;51.958;4.540;2023-08-30T09:39:03;11.23;;;6.27;;
13303;SDS011;6720;51.958;4.540;2023-08-30T09:41:33;9.97;;;4.27;;
13303;SDS011;6720;51.958;4.540;2023-08-30T09:43:59;6.83;;;4.53;;
13303;SDS011;6720;51.958;4.540;2023-08-30T09:46:25;9.50;;;4.57;;
13303;SDS011;6720;51.958;4.540;2023-08-30T09:48:51;8.90;;;4.83;;
13303;SDS011;6720;51.958;4.540;2023-08-30T09:51:18;9.17;;;4.30;;
13303;SDS011;6720;51.958;4.540;2023-08-30T09:53:47;8.63;;;4.80;;
13303;SDS011;6720;51.958;4.540;2023-08-30T09:56:14;11.57;;;4.20;;
13303;SDS011;6720;51.958;4.540;2023-08-30T09:58:41;10.43;;;4.37;;
13303;SDS011;6720;51.958;4.540;2023-08-30T10:01:07;6.80;;;4.10;;
13303;SDS011;6720;51.958;4.540;2023-08-30T10:03:34;8.93;;;4.40;;
13303;SDS011;6720;51.958;4.540;2023-08-30T10:06:01;8.67;;;4.13;;
13303;SDS011;6720;51.958;4.540;2023-08-30T10:08:30;7.47;;;3.73;;
13303;SDS011;6720;51.958;4.540;2023-08-30T10:10:58;8.47;;;4.07;;
13303;SDS011;6720;51.958;4.540;2023-08-30T10:13:25;9.10;;;5.10;;
13303;SDS011;6720;51.958;4.540;2023-08-30T10:15:51;8.23;;;5.00;;
13303;SDS011;6720;51.958;4.540;2023-08-30T10:18:21;7.93;;;5.57;;
13303;SDS011;6720;51.958;4.540;2023-08-30T10:20:51;9.60;;;5.17;;
13303;SDS011;6720;51.958;4.540;2023-08-30T10:23:19;9.17;;;5.27;;
13303;SDS011;6720;51.958;4.540;2023-08-30T10:25:46;13.03;;;5.77;;
13303;SDS011;6720;51.958;4.540;2023-08-30T10:28:14;8.23;;;5.43;;
13303;SDS011;6720;51.958;4.540;2023-08-30T10:30:41;13.70;;;5.13;;
13303;SDS011;6720;51.958;4.540;2023-08-30T10:33:14;11.80;;;5.57;;
13303;SDS011;6720;51.958;4.540;2023-08-30T10:35:47;14.23;;;5.93;;
13303;SDS011;6720;51.958;4.540;2023-08-30T10:38:26;10.80;;;5.40;;
13303;SDS011;6720;51.958;4.540;2023-08-30T10:40:53;10.93;;;5.37;;
13303;SDS011;6720;51.958;4.540;2023-08-30T10:43:29;13.60;;;5.57;;
13303;SDS011;6720;51.958;4.540;2023-08-30T10:46:05;9.37;;;5.10;;
13303;SDS011;6720;51.958;4.540;2023-08-30T10:48:37;11.80;;;4.97;;
13303;SDS011;6720;51.958;4.540;2023-08-30T10:51:03;8.87;;;4.87;;
13303;SDS011;6720;51.958;4.540;2023-08-30T10:53:32;12.20;;;5.07;;
13303;SDS011;6720;51.958;4.540;2023-08-30T10:56:09;10.17;;;3.77;;
13303;SDS011;6720;51.958;4.540;2023-08-30T10:58:40;10.87;;;3.93;;
13303;SDS011;6720;51.958;4.540;2023-08-30T11:01:07;10.10;;;4.00;;
13303;SDS011;6720;51.958;4.540;2023-08-30T11:03:38;10.73;;;3.67;;
13303;SDS011;6720;51.958;4.540;2023-08-30T11:06:04;9.40;;;3.53;;
13303;SDS011;6720;51.958;4.540;2023-08-30T11:08:31;7.73;;;3.63;;
13303;SDS011;6720;51.958;4.540;2023-08-30T11:11:02;9.77;;;3.50;;
13303;SDS011;6720;51.958;4.540;2023-08-30T11:13:31;10.50;;;3.40;;
13303;SDS011;6720;51.958;4.540;2023-08-30T11:16:00;8.17;;;3.20;;
13303;SDS011;6720;51.958;4.540;2023-08-30T11:18:33;7.23;;;3.40;;
13303;SDS011;6720;51.958;4.540;2023-08-30T11:21:02;8.80;;;3.43;;
13303;SDS011;6720;51.958;4.540;2023-08-30T11:23:28;9.50;;;3.47;;
13303;SDS011;6720;51.958;4.540;2023-08-30T11:25:54;9.03;;;3.70;;
13303;SDS011;6720;51.958;4.540;2023-08-30T11:28:23;7.10;;;3.40;;
13303;SDS011;6720;51.958;4.540;2023-08-30T11:30:53;10.63;;;4.97;;
13303;SDS011;6720;51.958;4.540;2023-08-30T11:33:20;10.53;;;4.20;;
13303;SDS011;6720;51.958;4.540;2023-08-30T11:35:46;12.20;;;4.37;;
13303;SDS011;6720;51.958;4.540;2023-08-30T11:38:15;9.40;;;4.10;;
13303;SDS011;6720;51.958;4.540;2023-08-30T11:40:40;9.67;;;4.10;;
13303;SDS011;6720;51.958;4.540;2023-08-30T11:43:06;11.77;;;3.60;;
13303;SDS011;6720;51.958;4.540;2023-08-30T11:45:32;9.50;;;3.73;;
13303;SDS011;6720;51.958;4.540;2023-08-30T11:48:01;9.43;;;3.70;;
13303;SDS011;6720;51.958;4.540;2023-08-30T11:50:27;9.80;;;3.80;;
13303;SDS011;6720;51.958;4.540;2023-08-30T11:53:01;8.40;;;3.40;;
13303;SDS011;6720;51.958;4.540;2023-08-30T11:59:02;9.07;;;3.60;;
13303;SDS011;6720;51.958;4.540;2023-08-30T12:01:52;6.00;;;2.93;;
13303;SDS011;6720;51.958;4.540;2023-08-30T12:04:36;6.53;;;3.47;;
13303;SDS011;6720;51.958;4.540;2023-08-30T12:07:33;6.23;;;3.20;;
13303;SDS011;6720;51.958;4.540;2023-08-30T12:10:33;8.50;;;3.17;;
13303;SDS011;6720;51.958;4.540;2023-08-30T12:13:23;8.00;;;3.10;;
13303;SDS011;6720;51.958;4.540;2023-08-30T12:16:17;7.57;;;3.30;;
13303;SDS011;6720;51.958;4.540;2023-08-30T12:19:12;7.10;;;3.03;;
13303;SDS011;6720;51.958;4.540;2023-08-30T12:21:52;7.17;;;2.80;;
13303;SDS011;6720;51.958;4.540;2023-08-30T12:24:46;8.03;;;2.90;;
13303;SDS011;6720;51.958;4.540;2023-08-30T12:27:40;8.40;;;2.90;;
13303;SDS011;6720;51.958;4.540;2023-08-30T12:30:37;8.17;;;3.00;;
13303;SDS011;6720;51.958;4.540;2023-08-30T12:33:27;9.60;;;2.83;;
13303;SDS011;6720;51.958;4.540;2023-08-30T12:36:16;6.97;;;2.90;;
13303;SDS011;6720;51.958;4.540;2023-08-30T12:38:58;7.27;;;3.17;;
13303;SDS011;6720;51.958;4.540;2023-08-30T12:41:49;5.53;;;2.73;;
13303;SDS011;6720;51.958;4.540;2023-08-30T12:45:01;6.47;;;2.43;;
13303;SDS011;6720;51.958;4.540;2023-08-30T12:55:12;6.17;;;3.00;;
13303;SDS011;6720;51.958;4.540;2023-08-30T12:58:16;7.47;;;2.80;;
13303;SDS011;6720;51.958;4.540;2023-08-30T13:00:56;9.13;;;2.83;;
13303;SDS011;6720;51.958;4.540;2023-08-30T13:03:41;9.23;;;2.63;;
13303;SDS011;6720;51.958;4.540;2023-08-30T13:06:12;7.23;;;3.13;;
13303;SDS011;6720;51.958;4.540;2023-08-30T13:09:01;5.17;;;2.40;;
13303;SDS011;6720;51.958;4.540;2023-08-30T13:12:03;5.93;;;2.40;;
13303;SDS011;6720;51.958;4.540;2023-08-30T13:14:50;6.80;;;2.50;;
13303;SDS011;6720;51.958;4.540;2023-08-30T13:17:40;7.50;;;2.63;;
13303;SDS011;6720;51.958;4.540;2023-08-30T13:20:08;7.23;;;2.27;;
13303;SDS011;6720;51.958;4.540;2023-08-30T13:22:34;3.73;;;2.30;;
13303;SDS011;6720;51.958;4.540;2023-08-30T13:24:59;6.13;;;2.30;;
13303;SDS011;6720;51.958;4.540;2023-08-30T13:27:25;6.63;;;2.43;;
13303;SDS011;6720;51.958;4.540;2023-08-30T13:29:50;7.03;;;2.80;;
13303;SDS011;6720;51.958;4.540;2023-08-30T13:32:16;7.77;;;2.73;;
13303;SDS011;6720;51.958;4.540;2023-08-30T13:34:41;7.37;;;2.60;;
13303;SDS011;6720;51.958;4.540;2023-08-30T13:37:11;10.50;;;2.80;;
13303;SDS011;6720;51.958;4.540;2023-08-30T13:39:38;4.40;;;2.53;;
13303;SDS011;6720;51.958;4.540;2023-08-30T13:42:04;4.07;;;2.37;;
13303;SDS011;6720;51.958;4.540;2023-08-30T13:44:29;5.27;;;2.23;;
13303;SDS011;6720;51.958;4.540;2023-08-30T13:46:55;5.53;;;2.20;;
13303;SDS011;6720;51.958;4.540;2023-08-30T13:49:21;7.87;;;2.53;;
13303;SDS011;6720;51.958;4.540;2023-08-30T13:51:46;5.40;;;2.53;;
13303;SDS011;6720;51.958;4.540;2023-08-30T13:54:12;6.73;;;2.70;;
13303;SDS011;6720;51.958;4.540;2023-08-30T13:56:37;4.70;;;2.33;;
13303;SDS011;6720;51.958;4.540;2023-08-30T13:59:03;4.87;;;2.23;;
13303;SDS011;6720;51.958;4.540;2023-08-30T14:01:30;6.57;;;2.60;;
13303;SDS011;6720;51.958;4.540;2023-08-30T14:03:56;6.20;;;2.43;;
13303;SDS011;6720;51.958;4.540;2023-08-30T14:06:21;6.53;;;2.53;;
13303;SDS011;6720;51.958;4.540;2023-08-30T14:08:47;6.97;;;2.40;;
13303;SDS011;6720;51.958;4.540;2023-08-30T14:11:13;6.23;;;2.20;;
13303;SDS011;6720;51.958;4.540;2023-08-30T14:13:39;5.60;;;2.23;;
13303;SDS011;6720;51.958;4.540;2023-08-30T14:16:04;5.77;;;2.20;;
13303;SDS011;6720;51.958;4.540;2023-08-30T14:18:30;4.20;;;2.00;;
13303;SDS011;6720;51.958;4.540;2023-08-30T14:20:56;6.97;;;2.27;;
13303;SDS011;6720;51.958;4.540;2023-08-30T14:23:23;6.50;;;2.30;;
13303;SDS011;6720;51.958;4.540;2023-08-30T14:25:57;3.73;;;2.13;;
13303;SDS011;6720;51.958;4.540;2023-08-30T14:28:24;5.83;;;2.10;;
13303;SDS011;6720;51.958;4.540;2023-08-30T14:30:52;6.43;;;2.27;;
13303;SDS011;6720;51.958;4.540;2023-08-30T14:33:18;6.17;;;2.20;;
13303;SDS011;6720;51.958;4.540;2023-08-30T14:35:44;5.53;;;2.10;;
13303;SDS011;6720;51.958;4.540;2023-08-30T14:38:10;4.30;;;2.27;;
13303;SDS011;6720;51.958;4.540;2023-08-30T14:40:35;5.77;;;2.30;;
13303;SDS011;6720;51.958;4.540;2023-08-30T14:43:04;7.40;;;2.40;;
13303;SDS011;6720;51.958;4.540;2023-08-30T14:45:30;5.87;;;2.10;;
13303;SDS011;6720;51.958;4.540;2023-08-30T14:47:56;7.77;;;2.10;;
13303;SDS011;6720;51.958;4.540;2023-08-30T14:50:22;4.57;;;2.03;;
13303;SDS011;6720;51.958;4.540;2023-08-30T14:52:59;6.03;;;1.90;;
13303;SDS011;6720;51.958;4.540;2023-08-30T14:55:45;4.80;;;1.92;;
13303;SDS011;6720;51.958;4.540;2023-08-30T14:58:11;6.43;;;2.23;;
13303;SDS011;6720;51.958;4.540;2023-08-30T15:00:37;6.50;;;3.13;;
13303;SDS011;6720;51.958;4.540;2023-08-30T15:03:02;5.40;;;2.30;;
13303;SDS011;6720;51.958;4.540;2023-08-30T15:05:28;8.60;;;4.10;;
13303;SDS011;6720;51.958;4.540;2023-08-30T15:07:53;11.23;;;5.47;;
13303;SDS011;6720;51.958;4.540;2023-08-30T15:10:19;7.80;;;4.83;;
13303;SDS011;6720;51.958;4.540;2023-08-30T15:12:44;6.57;;;2.50;;
13303;SDS011;6720;51.958;4.540;2023-08-30T15:15:10;5.00;;;2.83;;
13303;SDS011;6720;51.958;4.540;2023-08-30T15:17:35;6.10;;;2.20;;
13303;SDS011;6720;51.958;4.540;2023-08-30T15:20:01;9.33;;;3.17;;
13303;SDS011;6720;51.958;4.540;2023-08-30T15:22:27;6.93;;;2.97;;
13303;SDS011;6720;51.958;4.540;2023-08-30T15:24:52;9.83;;;4.43;;
13303;SDS011;6720;51.958;4.540;2023-08-30T15:27:18;6.07;;;2.17;;
13303;SDS011;6720;51.958;4.540;2023-08-30T15:29:43;10.00;;;5.50;;
13303;SDS011;6720;51.958;4.540;2023-08-30T15:32:08;7.20;;;3.07;;